Terminal Aerodrome Forecast
Issued by NWS

Home | Current Version | Previous Version | Text Only | Print | Product List | Glossary On
Versions: 1 2 3 4 5 6 7 8 9 10 11 12 13 14 15 16 17 18 19 20 21 22 23 24 25 26 27 28 29 30 31 32 33 34 35 36 37 38 39 40 41 42 43 44 45 46 47 48 49 50
000
FTUS41 KCTP 192341
TAFJST
TAF
KJST 192341Z 2000/2024 13015G25KT P6SM -RA OVC050 WS020/14050KT
     FM200200 13015G25KT 5SM -RA BR OVC025 WS020/14055KT
     FM200600 14015G20KT 3SM RA BR OVC007 WS020/15060KT
     FM201200 17010KT P6SM OVC015
     FM201600 20010G15KT P6SM OVC035
     FM202000 23010G20KT P6SM VCTS BKN040CB=

USA.gov is the U.S. government's official web portal to all federal, state and local government web resources and services.